sensor_id;sensor_type;location;lat;lon;timestamp;temperature;humidity
6954;DHT22;3516;47.980;8.808;2023-03-24T05:56:16;9.70;99.90
6954;DHT22;3516;47.980;8.808;2023-03-24T05:58:43;10.30;99.90
6954;DHT22;3516;47.980;8.808;2023-03-24T06:01:10;10.30;99.90
6954;DHT22;3516;47.980;8.808;2023-03-24T06:03:38;10.30;99.90
6954;DHT22;3516;47.980;8.808;2023-03-24T06:06:06;10.30;99.90
6954;DHT22;3516;47.980;8.808;2023-03-24T06:08:33;10.30;99.90
6954;DHT22;3516;47.980;8.808;2023-03-24T06:11:00;10.30;99.90
6954;DHT22;3516;47.980;8.808;2023-03-24T06:13:27;10.30;99.90
6954;DHT22;3516;47.980;8.808;2023-03-24T06:15:54;10.20;99.90
6954;DHT22;3516;47.980;8.808;2023-03-24T06:18:23;10.20;99.90
6954;DHT22;3516;47.980;8.808;2023-03-24T06:20:52;10.20;99.90
6954;DHT22;3516;47.980;8.808;2023-03-24T06:23:26;10.20;99.90
6954;DHT22;3516;47.980;8.808;2023-03-24T06:25:53;10.20;99.90
6954;DHT22;3516;47.980;8.808;2023-03-24T06:28:22;10.30;99.90
6954;DHT22;3516;47.980;8.808;2023-03-24T06:30:50;10.40;99.90
6954;DHT22;3516;47.980;8.808;2023-03-24T06:33:17;10.40;99.90
6954;DHT22;3516;47.980;8.808;2023-03-24T06:35:46;10.50;99.90
6954;DHT22;3516;47.980;8.808;2023-03-24T06:38:14;10.50;99.90
6954;DHT22;3516;47.980;8.808;2023-03-24T06:40:41;10.60;99.90
6954;DHT22;3516;47.980;8.808;2023-03-24T06:43:07;10.70;99.90
6954;DHT22;3516;47.980;8.808;2023-03-24T06:45:34;10.70;99.90
6954;DHT22;3516;47.980;8.808;2023-03-24T06:48:03;10.80;99.90
6954;DHT22;3516;47.980;8.808;2023-03-24T06:50:30;10.90;99.90
6954;DHT22;3516;47.980;8.808;2023-03-24T06:53:00;11.00;99.90
6954;DHT22;3516;47.980;8.808;2023-03-24T06:55:28;11.00;99.90
6954;DHT22;3516;47.980;8.808;2023-03-24T06:57:55;11.10;99.90
6954;DHT22;3516;47.980;8.808;2023-03-24T07:00:22;11.20;99.90
6954;DHT22;3516;47.980;8.808;2023-03-24T07:02:50;11.30;99.90
6954;DHT22;3516;47.980;8.808;2023-03-24T07:05:17;11.40;99.90
6954;DHT22;3516;47.980;8.808;2023-03-24T07:07:44;11.40;99.90
6954;DHT22;3516;47.980;8.808;2023-03-24T07:10:11;11.50;99.90
6954;DHT22;3516;47.980;8.808;2023-03-24T07:12:40;11.60;99.90
6954;DHT22;3516;47.980;8.808;2023-03-24T07:15:08;11.60;99.90
6954;DHT22;3516;47.980;8.808;2023-03-24T07:17:36;11.60;99.90
6954;DHT22;3516;47.980;8.808;2023-03-24T07:20:03;11.80;99.90
6954;DHT22;3516;47.980;8.808;2023-03-24T07:22:33;11.90;99.90
6954;DHT22;3516;47.980;8.808;2023-03-24T07:25:02;11.90;99.90
6954;DHT22;3516;47.980;8.808;2023-03-24T07:27:29;11.90;99.90
6954;DHT22;3516;47.980;8.808;2023-03-24T07:29:59;12.10;99.90
6954;DHT22;3516;47.980;8.808;2023-03-24T07:32:28;12.10;99.90
6954;DHT22;3516;47.980;8.808;2023-03-24T07:34:59;12.10;99.90
6954;DHT22;3516;47.980;8.808;2023-03-24T07:37:27;12.00;99.90
6954;DHT22;3516;47.980;8.808;2023-03-24T07:39:54;12.00;99.90
6954;DHT22;3516;47.980;8.808;2023-03-24T07:42:21;12.00;99.90
6954;DHT22;3516;47.980;8.808;2023-03-24T07:44:48;12.00;99.90
6954;DHT22;3516;47.980;8.808;2023-03-24T07:47:17;12.00;99.90
6954;DHT22;3516;47.980;8.808;2023-03-24T07:49:44;12.00;99.90
6954;DHT22;3516;47.980;8.808;2023-03-24T07:52:11;12.00;99.90
6954;DHT22;3516;47.980;8.808;2023-03-24T07:54:39;12.00;99.90
6954;DHT22;3516;47.980;8.808;2023-03-24T07:57:06;12.00;99.90
6954;DHT22;3516;47.980;8.808;2023-03-24T07:59:33;11.90;99.90
6954;DHT22;3516;47.980;8.808;2023-03-24T08:02:00;12.00;99.90
6954;DHT22;3516;47.980;8.808;2023-03-24T08:04:28;12.00;99.90
6954;DHT22;3516;47.980;8.808;2023-03-24T08:06:56;12.00;99.90
6954;DHT22;3516;47.980;8.808;2023-03-24T08:09:24;12.10;99.90
6954;DHT22;3516;47.980;8.808;2023-03-24T08:11:51;12.10;99.90
6954;DHT22;3516;47.980;8.808;2023-03-24T08:14:18;12.10;99.90
6954;DHT22;3516;47.980;8.808;2023-03-24T08:16:44;12.10;99.90
6954;DHT22;3516;47.980;8.808;2023-03-24T08:19:11;12.10;99.90
6954;DHT22;3516;47.980;8.808;2023-03-24T08:21:39;12.00;99.90
6954;DHT22;3516;47.980;8.808;2023-03-24T08:24:06;12.00;99.90
6954;DHT22;3516;47.980;8.808;2023-03-24T08:26:33;11.90;99.90
6954;DHT22;3516;47.980;8.808;2023-03-24T08:29:00;12.00;99.90
6954;DHT22;3516;47.980;8.808;2023-03-24T08:31:30;11.90;99.90
6954;DHT22;3516;47.980;8.808;2023-03-24T08:33:58;11.90;99.90
6954;DHT22;3516;47.980;8.808;2023-03-24T08:36:25;11.80;99.90
6954;DHT22;3516;47.980;8.808;2023-03-24T08:38:53;11.80;99.90
6954;DHT22;3516;47.980;8.808;2023-03-24T08:41:20;11.80;99.90
6954;DHT22;3516;47.980;8.808;2023-03-24T08:43:55;11.70;99.90
6954;DHT22;3516;47.980;8.808;2023-03-24T08:46:21;11.60;99.90
6954;DHT22;3516;47.980;8.808;2023-03-24T08:48:48;11.70;99.90
6954;DHT22;3516;47.980;8.808;2023-03-24T08:51:16;11.70;99.90
6954;DHT22;3516;47.980;8.808;2023-03-24T08:53:43;11.60;99.90
6954;DHT22;3516;47.980;8.808;2023-03-24T08:56:11;11.70;99.90
6954;DHT22;3516;47.980;8.808;2023-03-24T08:58:37;11.70;99.90
6954;DHT22;3516;47.980;8.808;2023-03-24T09:01:05;11.60;99.90
6954;DHT22;3516;47.980;8.808;2023-03-24T09:03:32;11.70;99.90
6954;DHT22;3516;47.980;8.808;2023-03-24T09:06:00;11.80;99.90
6954;DHT22;3516;47.980;8.808;2023-03-24T09:08:27;11.70;99.90
6954;DHT22;3516;47.980;8.808;2023-03-24T09:10:53;11.70;99.90
6954;DHT22;3516;47.980;8.808;2023-03-24T09:13:22;11.70;99.90
6954;DHT22;3516;47.980;8.808;2023-03-24T09:15:50;11.70;99.90
6954;DHT22;3516;47.980;8.808;2023-03-24T09:18:19;11.60;99.90
6954;DHT22;3516;47.980;8.808;2023-03-24T09:20:46;11.70;99.90
6954;DHT22;3516;47.980;8.808;2023-03-24T09:23:14;11.80;99.90
6954;DHT22;3516;47.980;8.808;2023-03-24T09:25:40;11.90;99.90
6954;DHT22;3516;47.980;8.808;2023-03-24T09:28:07;12.10;99.90
6954;DHT22;3516;47.980;8.808;2023-03-24T09:30:36;12.10;99.90
6954;DHT22;3516;47.980;8.808;2023-03-24T09:33:03;12.10;99.90
6954;DHT22;3516;47.980;8.808;2023-03-24T09:35:30;12.30;99.90
6954;DHT22;3516;47.980;8.808;2023-03-24T09:37:57;12.50;99.90
6954;DHT22;3516;47.980;8.808;2023-03-24T09:40:26;12.80;99.90
6954;DHT22;3516;47.980;8.808;2023-03-24T09:42:56;12.90;99.90
6954;DHT22;3516;47.980;8.808;2023-03-24T09:45:26;12.90;99.90
6954;DHT22;3516;47.980;8.808;2023-03-24T09:47:57;12.90;99.90
6954;DHT22;3516;47.980;8.808;2023-03-24T09:50:28;12.90;99.90
6954;DHT22;3516;47.980;8.808;2023-03-24T09:52:58;12.90;99.90
6954;DHT22;3516;47.980;8.808;2023-03-24T09:55:27;13.00;99.90
6954;DHT22;3516;47.980;8.808;2023-03-24T09:57:56;13.00;99.90
6954;DHT22;3516;47.980;8.808;2023-03-24T10:00:26;13.00;99.90
6954;DHT22;3516;47.980;8.808;2023-03-24T10:02:58;13.10;99.90
6954;DHT22;3516;47.980;8.808;2023-03-24T10:05:28;12.90;99.90
6954;DHT22;3516;47.980;8.808;2023-03-24T10:08:13;12.80;99.90
6954;DHT22;3516;47.980;8.808;2023-03-24T10:10:49;12.80;99.90
6954;DHT22;3516;47.980;8.808;2023-03-24T10:13:28;12.90;99.90
6954;DHT22;3516;47.980;8.808;2023-03-24T10:16:01;12.80;99.90
6954;DHT22;3516;47.980;8.808;2023-03-24T10:18:33;12.80;99.90
6954;DHT22;3516;47.980;8.808;2023-03-24T10:21:06;12.80;99.90
6954;DHT22;3516;47.980;8.808;2023-03-24T10:23:39;12.90;99.90
6954;DHT22;3516;47.980;8.808;2023-03-24T10:26:21;13.00;99.90
6954;DHT22;3516;47.980;8.808;2023-03-24T10:29:05;12.90;99.90
6954;DHT22;3516;47.980;8.808;2023-03-24T10:31:37;12.90;99.90
6954;DHT22;3516;47.980;8.808;2023-03-24T10:34:09;12.80;99.90
6954;DHT22;3516;47.980;8.808;2023-03-24T10:36:36;12.80;99.90
6954;DHT22;3516;47.980;8.808;2023-03-24T10:39:04;12.80;99.90
6954;DHT22;3516;47.980;8.808;2023-03-24T10:41:31;12.70;99.90
6954;DHT22;3516;47.980;8.808;2023-03-24T10:43:58;12.70;99.90
6954;DHT22;3516;47.980;8.808;2023-03-24T10:46:29;12.60;99.90
6954;DHT22;3516;47.980;8.808;2023-03-24T10:49:08;12.50;99.90
6954;DHT22;3516;47.980;8.808;2023-03-24T10:51:44;12.40;99.90
6954;DHT22;3516;47.980;8.808;2023-03-24T10:54:15;12.40;99.90
6954;DHT22;3516;47.980;8.808;2023-03-24T10:56:44;12.30;99.90
6954;DHT22;3516;47.980;8.808;2023-03-24T10:59:20;12.20;99.90
6954;DHT22;3516;47.980;8.808;2023-03-24T11:01:59;12.20;99.90
6954;DHT22;3516;47.980;8.808;2023-03-24T11:04:29;12.10;99.90
6954;DHT22;3516;47.980;8.808;2023-03-24T11:07:02;11.90;99.90
6954;DHT22;3516;47.980;8.808;2023-03-24T11:09:38;11.80;99.90
6954;DHT22;3516;47.980;8.808;2023-03-24T11:12:19;11.70;99.90
6954;DHT22;3516;47.980;8.808;2023-03-24T11:14:46;11.60;99.90
6954;DHT22;3516;47.980;8.808;2023-03-24T11:17:14;11.40;99.90
6954;DHT22;3516;47.980;8.808;2023-03-24T11:19:51;11.20;99.90
6954;DHT22;3516;47.980;8.808;2023-03-24T11:22:18;11.20;99.90
6954;DHT22;3516;47.980;8.808;2023-03-24T11:24:46;11.20;99.90
6954;DHT22;3516;47.980;8.808;2023-03-24T11:27:15;11.00;99.90
6954;DHT22;3516;47.980;8.808;2023-03-24T11:29:47;11.00;99.90
6954;DHT22;3516;47.980;8.808;2023-03-24T11:32:20;10.80;99.90
6954;DHT22;3516;47.980;8.808;2023-03-24T11:34:51;10.90;99.90
6954;DHT22;3516;47.980;8.808;2023-03-24T11:37:24;10.90;99.90
6954;DHT22;3516;47.980;8.808;2023-03-24T11:40:13;10.90;99.90
6954;DHT22;3516;47.980;8.808;2023-03-24T11:42:43;11.00;99.90
6954;DHT22;3516;47.980;8.808;2023-03-24T11:45:20;11.00;99.90
6954;DHT22;3516;47.980;8.808;2023-03-24T11:47:47;11.00;99.90
6954;DHT22;3516;47.980;8.808;2023-03-24T11:50:19;11.10;99.90
6954;DHT22;3516;47.980;8.808;2023-03-24T11:52:51;11.20;99.90
6954;DHT22;3516;47.980;8.808;2023-03-24T11:55:24;11.20;99.90
6954;DHT22;3516;47.980;8.808;2023-03-24T11:57:57;11.30;99.90
6954;DHT22;3516;47.980;8.808;2023-03-24T12:00:29;11.30;99.90
6954;DHT22;3516;47.980;8.808;2023-03-24T12:03:31;11.30;99.90
6954;DHT22;3516;47.980;8.808;2023-03-24T12:06:16;11.20;99.90
6954;DHT22;3516;47.980;8.808;2023-03-24T12:08:57;11.20;99.90
6954;DHT22;3516;47.980;8.808;2023-03-24T12:11:34;11.10;99.90
6954;DHT22;3516;47.980;8.808;2023-03-24T12:14:05;10.90;99.90
6954;DHT22;3516;47.980;8.808;2023-03-24T12:16:39;10.60;99.90
6954;DHT22;3516;47.980;8.808;2023-03-24T12:19:27;10.60;99.90
6954;DHT22;3516;47.980;8.808;2023-03-24T12:22:05;10.50;99.90
6954;DHT22;3516;47.980;8.808;2023-03-24T12:24:46;10.60;99.90
6954;DHT22;3516;47.980;8.808;2023-03-24T12:27:22;10.50;99.90
6954;DHT22;3516;47.980;8.808;2023-03-24T12:29:59;10.50;99.90
6954;DHT22;3516;47.980;8.808;2023-03-24T12:32:42;10.60;99.90
6954;DHT22;3516;47.980;8.808;2023-03-24T12:35:40;10.70;99.90
6954;DHT22;3516;47.980;8.808;2023-03-24T12:38:19;10.70;99.90
6954;DHT22;3516;47.980;8.808;2023-03-24T12:41:06;10.80;99.90
6954;DHT22;3516;47.980;8.808;2023-03-24T12:43:44;10.90;99.90
6954;DHT22;3516;47.980;8.808;2023-03-24T12:46:24;11.00;99.90
6954;DHT22;3516;47.980;8.808;2023-03-24T12:49:15;11.10;99.90
6954;DHT22;3516;47.980;8.808;2023-03-24T12:51:50;11.30;99.90
6954;DHT22;3516;47.980;8.808;2023-03-24T12:54:29;11.50;99.90
6954;DHT22;3516;47.980;8.808;2023-03-24T12:56:59;11.60;99.90
6954;DHT22;3516;47.980;8.808;2023-03-24T12:59:31;11.70;99.90
6954;DHT22;3516;47.980;8.808;2023-03-24T13:02:04;11.80;99.90
6954;DHT22;3516;47.980;8.808;2023-03-24T13:04:38;11.80;99.90
6954;DHT22;3516;47.980;8.808;2023-03-24T13:07:07;11.90;99.90
6954;DHT22;3516;47.980;8.808;2023-03-24T13:09:42;12.00;99.90
6954;DHT22;3516;47.980;8.808;2023-03-24T13:12:13;12.00;99.90
6954;DHT22;3516;47.980;8.808;2023-03-24T13:14:48;12.10;99.90
6954;DHT22;3516;47.980;8.808;2023-03-24T13:17:20;12.00;99.90
6954;DHT22;3516;47.980;8.808;2023-03-24T13:19:49;12.00;99.90
6954;DHT22;3516;47.980;8.808;2023-03-24T13:22:17;12.10;99.90
6954;DHT22;3516;47.980;8.808;2023-03-24T13:24:47;12.00;99.90
6954;DHT22;3516;47.980;8.808;2023-03-24T13:27:19;11.90;99.90
6954;DHT22;3516;47.980;8.808;2023-03-24T13:30:15;11.80;99.90
6954;DHT22;3516;47.980;8.808;2023-03-24T13:32:47;11.80;99.90
6954;DHT22;3516;47.980;8.808;2023-03-24T13:35:25;11.60;99.90
6954;DHT22;3516;47.980;8.808;2023-03-24T13:37:56;11.50;99.90
6954;DHT22;3516;47.980;8.808;2023-03-24T13:40:28;11.50;99.90
6954;DHT22;3516;47.980;8.808;2023-03-24T13:42:58;11.40;99.90
6954;DHT22;3516;47.980;8.808;2023-03-24T13:45:32;11.20;99.90
6954;DHT22;3516;47.980;8.808;2023-03-24T13:48:22;11.10;99.90
6954;DHT22;3516;47.980;8.808;2023-03-24T13:50:54;11.00;99.90
6954;DHT22;3516;47.980;8.808;2023-03-24T13:53:30;10.90;99.90
6954;DHT22;3516;47.980;8.808;2023-03-24T13:56:00;10.80;99.90
6954;DHT22;3516;47.980;8.808;2023-03-24T13:58:46;10.70;99.90
6954;DHT22;3516;47.980;8.808;2023-03-24T14:01:17;10.60;99.90
6954;DHT22;3516;47.980;8.808;2023-03-24T14:03:46;10.50;99.90
6954;DHT22;3516;47.980;8.808;2023-03-24T14:06:43;10.40;99.90
6954;DHT22;3516;47.980;8.808;2023-03-24T14:09:15;10.30;99.90
6954;DHT22;3516;47.980;8.808;2023-03-24T14:11:48;10.30;99.90
6954;DHT22;3516;47.980;8.808;2023-03-24T14:14:18;10.30;99.90
6954;DHT22;3516;47.980;8.808;2023-03-24T14:16:49;10.30;99.90
6954;DHT22;3516;47.980;8.808;2023-03-24T14:19:20;10.30;99.90
6954;DHT22;3516;47.980;8.808;2023-03-24T14:21:52;10.30;99.90
6954;DHT22;3516;47.980;8.808;2023-03-24T14:24:24;10.30;99.90
6954;DHT22;3516;47.980;8.808;2023-03-24T14:26:53;10.30;99.90
6954;DHT22;3516;47.980;8.808;2023-03-24T14:29:36;10.20;99.90
6954;DHT22;3516;47.980;8.808;2023-03-24T14:32:04;10.20;99.90
6954;DHT22;3516;47.980;8.808;2023-03-24T14:34:33;10.30;99.90
6954;DHT22;3516;47.980;8.808;2023-03-24T14:37:02;10.20;99.90
6954;DHT22;3516;47.980;8.808;2023-03-24T14:39:35;10.10;99.90
6954;DHT22;3516;47.980;8.808;2023-03-24T14:45:41;10.00;99.90
6954;DHT22;3516;47.980;8.808;2023-03-24T14:48:32;10.00;99.90
6954;DHT22;3516;47.980;8.808;2023-03-24T14:51:05;10.00;99.90
6954;DHT22;3516;47.980;8.808;2023-03-24T14:53:35;10.00;99.90
6954;DHT22;3516;47.980;8.808;2023-03-24T14:56:05;10.00;99.90
6954;DHT22;3516;47.980;8.808;2023-03-24T14:58:35;10.00;99.90
6954;DHT22;3516;47.980;8.808;2023-03-24T15:01:05;10.10;99.90
6954;DHT22;3516;47.980;8.808;2023-03-24T15:03:40;10.10;99.90
6954;DHT22;3516;47.980;8.808;2023-03-24T15:06:15;10.10;99.90
6954;DHT22;3516;47.980;8.808;2023-03-24T15:08:48;10.00;99.90
6954;DHT22;3516;47.980;8.808;2023-03-24T15:11:18;10.00;99.90
6954;DHT22;3516;47.980;8.808;2023-03-24T15:13:48;10.10;99.90
6954;DHT22;3516;47.980;8.808;2023-03-24T15:16:21;10.10;99.90
6954;DHT22;3516;47.980;8.808;2023-03-24T15:18:50;10.00;99.90
6954;DHT22;3516;47.980;8.808;2023-03-24T15:21:24;10.00;99.90
6954;DHT22;3516;47.980;8.808;2023-03-24T15:23:51;10.00;99.90
6954;DHT22;3516;47.980;8.808;2023-03-24T15:26:19;10.00;99.90
6954;DHT22;3516;47.980;8.808;2023-03-24T15:28:53;10.00;99.90
6954;DHT22;3516;47.980;8.808;2023-03-24T15:31:23;10.00;99.90
6954;DHT22;3516;47.980;8.808;2023-03-24T15:34:05;9.90;99.90
6954;DHT22;3516;47.980;8.808;2023-03-24T15:36:39;9.90;99.90
6954;DHT22;3516;47.980;8.808;2023-03-24T15:39:18;9.80;99.90
6954;DHT22;3516;47.980;8.808;2023-03-24T15:41:46;9.80;99.90
6954;DHT22;3516;47.980;8.808;2023-03-24T15:44:16;9.70;99.90
6954;DHT22;3516;47.980;8.808;2023-03-24T15:46:46;9.70;99.90
6954;DHT22;3516;47.980;8.808;2023-03-24T15:49:21;9.70;99.90
6954;DHT22;3516;47.980;8.808;2023-03-24T15:51:50;9.70;99.90
6954;DHT22;3516;47.980;8.808;2023-03-24T15:54:22;9.70;99.90
6954;DHT22;3516;47.980;8.808;2023-03-24T15:57:00;9.60;99.90
6954;DHT22;3516;47.980;8.808;2023-03-24T15:59:33;9.60;99.90
6954;DHT22;3516;47.980;8.808;2023-03-24T16:02:03;9.60;99.90
6954;DHT22;3516;47.980;8.808;2023-03-24T16:04:31;9.50;99.90
6954;DHT22;3516;47.980;8.808;2023-03-24T16:06:58;9.50;99.90
6954;DHT22;3516;47.980;8.808;2023-03-24T16:09:34;9.50;99.90
6954;DHT22;3516;47.980;8.808;2023-03-24T16:12:04;9.60;99.90
6954;DHT22;3516;47.980;8.808;2023-03-24T16:14:34;9.60;99.90
6954;DHT22;3516;47.980;8.808;2023-03-24T16:17:02;9.70;99.90
6954;DHT22;3516;47.980;8.808;2023-03-24T16:19:31;9.80;99.90
6954;DHT22;3516;47.980;8.808;2023-03-24T16:21:58;9.90;99.90
6954;DHT22;3516;47.980;8.808;2023-03-24T16:24:26;9.90;99.90
6954;DHT22;3516;47.980;8.808;2023-03-24T16:26:53;9.90;99.90
6954;DHT22;3516;47.980;8.808;2023-03-24T16:29:21;9.80;99.90
6954;DHT22;3516;47.980;8.808;2023-03-24T16:31:50;9.80;99.90
6954;DHT22;3516;47.980;8.808;2023-03-24T16:34:19;9.70;99.90
6954;DHT22;3516;47.980;8.808;2023-03-24T16:36:47;9.70;99.90
6954;DHT22;3516;47.980;8.808;2023-03-24T16:39:16;9.60;99.90
6954;DHT22;3516;47.980;8.808;2023-03-24T16:41:43;9.60;99.90
6954;DHT22;3516;47.980;8.808;2023-03-24T16:44:11;9.60;99.90
6954;DHT22;3516;47.980;8.808;2023-03-24T16:46:38;9.60;99.90
6954;DHT22;3516;47.980;8.808;2023-03-24T16:49:07;9.60;99.90
6954;DHT22;3516;47.980;8.808;2023-03-24T16:51:35;9.60;99.90
6954;DHT22;3516;47.980;8.808;2023-03-24T16:54:02;9.60;99.90
6954;DHT22;3516;47.980;8.808;2023-03-24T16:56:29;9.60;99.90
6954;DHT22;3516;47.980;8.808;2023-03-24T16:58:56;9.60;99.90
6954;DHT22;3516;47.980;8.808;2023-03-24T17:01:29;9.50;99.90
6954;DHT22;3516;47.980;8.808;2023-03-24T17:03:59;9.50;99.90
6954;DHT22;3516;47.980;8.808;2023-03-24T17:06:27;9.50;99.90
6954;DHT22;3516;47.980;8.808;2023-03-24T17:08:56;9.40;99.90
6954;DHT22;3516;47.980;8.808;2023-03-24T17:11:25;9.40;99.90
6954;DHT22;3516;47.980;8.808;2023-03-24T17:13:53;9.30;99.90
6954;DHT22;3516;47.980;8.808;2023-03-24T17:16:21;9.30;99.90
6954;DHT22;3516;47.980;8.808;2023-03-24T17:18:50;9.40;99.90
6954;DHT22;3516;47.980;8.808;2023-03-24T17:21:17;9.30;99.90
6954;DHT22;3516;47.980;8.808;2023-03-24T17:23:45;9.30;99.90
